Darstellungsparameter: Aktuell verwendete Einstellungen:
Skalierung der Graphiken ... ?
xyx+y,   Skalierungsfaktor:      Skalierung: Modus: x, Faktor: 1
Darstellungszeitraum ... ?
Vom - - bis: - -   Zeitraum: 06.09.2015 - 05.09.2018
Min/Max/Avg-Anzeige ... ?
Zeige MMA aktuell
Zeige MMA Monat
Zeige MMA alles
Zeige --A aktuell
Zeige --A Monat
Zeige --A alles
Keine MMA-Anzeige
MMA:
Keine MMA-Graphiken
MMA-Basis: 06.09.2015 - 05.09.2018
Quicknavigation für Darstellung... ?
Tage:      1T, 2T, 3T, 5T -1T -2T -3T -5T +1T +2T +3T +5T
Wochen: 1W, 2W, 3W -1W -2W -3W +1W +2W +3W
Monate: 1M, 3M, 6M -1M -3M -6M +1M +3M +6M
Jahre:    1J, 3J, 5J, 10J -1J -3J -5J -10J +1J +3J +5J +10J
Nutze für die Darstellung ... ?
Originaldaten oder ...
Mittelwerte Minima Maxima auf...
Stundenbasis Tagesbasis Wochenbasis
Monatsbasis Jahresbasis      Datenbasis: Mittelwerte auf Tagesbasis
Darstellen als:
Statistik (Auto) Statistik J:M      Darstellung:
Zur Graphik,    zurück zur Übersicht aller Sensoren.
 
Tabellarische Datenbersicht: ?
 
Sensor: Nr:Datum:Temp:Feuchte:Taupunkt:
Aussen-T/F 1 06-09-2015 00:00:00 13.11632 C 74.0868 % 8.61 C
2 07-09-2015 00:00:00 13.56493 C 87.0000 % 11.44 C
3 08-09-2015 00:00:00 15.09236 C 84.9271 % 12.58 C
4 09-09-2015 00:00:00 15.60139 C 76.2118 % 11.43 C
5 10-09-2015 00:00:00 13.23854 C 76.5972 % 9.22 C
6 11-09-2015 00:00:00 13.19792 C 79.2847 % 9.69 C
7 12-09-2015 00:00:00 15.35312 C 83.7361 % 12.62 C
8 13-09-2015 00:00:00 17.07153 C 92.6042 % 15.86 C
9 14-09-2015 00:00:00 15.52639 C 91.7431 % 14.19 C
10 15-09-2015 00:00:00 12.94931 C 87.0938 % 10.86 C
11 16-09-2015 00:00:00 15.01667 C 93.7153 % 14.01 C
12 17-09-2015 00:00:00 14.6566 C 91.2049 % 13.24 C
13 18-09-2015 00:00:00 14.53542 C 85.5278 % 12.14 C
14 19-09-2015 00:00:00 14.32292 C 87.2118 % 12.23 C
15 20-09-2015 00:00:00 13.77188 C 84.7743 % 11.26 C
16 21-09-2015 00:00:00 12.22847 C 90.1354 % 10.66 C
17 22-09-2015 00:00:00 13.06701 C 91.6285 % 11.74 C
18 23-09-2015 00:00:00 11.92535 C 93.3056 % 10.88 C
19 24-09-2015 00:00:00 13.09618 C 90.9340 % 11.65 C
20 25-09-2015 00:00:00 13.95278 C 87.2257 % 11.86 C
21 26-09-2015 00:00:00 12.73889 C 89.2049 % 11.01 C
22 27-09-2015 00:00:00 11.29236 C 83.7500 % 8.65 C
23 28-09-2015 00:00:00 10.50729 C 82.5556 % 7.67 C
24 29-09-2015 00:00:00 10.96979 C 81.2257 % 7.88 C
25 30-09-2015 00:00:00 10.73368 C 77.8993 % 7.04 C
Sensor: Nr:Datum:Temp:Feuchte:Taupunkt:
Aussen-T/F 26 01-10-2015 00:00:00 9.88646 C 74.8576 % 5.64 C
27 02-10-2015 00:00:00 9.21528 C 85.2083 % 6.86 C
28 03-10-2015 00:00:00 11.40139 C 85.8993 % 9.13 C
29 04-10-2015 00:00:00 12.61562 C 91.5000 % 11.27 C
30 05-10-2015 00:00:00 11.96597 C 92.3958 % 10.77 C
31 06-10-2015 00:00:00 15.93854 C 95.3576 % 15.2 C
32 07-10-2015 00:00:00 14.99028 C 89.4375 % 13.27 C
33 08-10-2015 00:00:00 13.45521 C 86.9167 % 11.32 C
34 09-10-2015 00:00:00 12.29618 C 93.3993 % 11.26 C
35 10-10-2015 00:00:00 12.19271 C 87.9236 % 10.25 C
36 11-10-2015 00:00:00 8.37431 C 76.8542 % 4.56 C
37 12-10-2015 00:00:00 5.28229 C 82.6007 % 2.57 C
38 13-10-2015 00:00:00 4.33542 C 90.2049 % 2.88 C
39 14-10-2015 00:00:00 3.63333 C 95.0139 % 2.91 C
40 15-10-2015 00:00:00 4.25694 C 95.2500 % 3.57 C
41 16-10-2015 00:00:00 6.52431 C 92.4236 % 5.39 C
42 17-10-2015 00:00:00 6.99375 C 89.5000 % 5.39 C
43 18-10-2015 00:00:00 7.25556 C 90.9896 % 5.89 C
44 19-10-2015 00:00:00 8.22361 C 91.6285 % 6.94 C
45 20-10-2015 00:00:00 9.33576 C 93.8785 % 8.4 C
46 21-10-2015 00:00:00 9.83611 C 91.5903 % 8.53 C
47 22-10-2015 00:00:00 11.18472 C 88.5000 % 9.36 C
48 23-10-2015 00:00:00 10.26979 C 95.0417 % 9.51 C
49 24-10-2015 00:00:00 11.03438 C 89.7465 % 9.42 C
50 25-10-2015 00:00:00 11.68229 C 92.6528 % 10.53 C
Sensor: Nr:Datum:Temp:Feuchte:Taupunkt:
Aussen-T/F 51 26-10-2015 00:00:00 9.55312 C 94.6736 % 8.74 C
52 27-10-2015 00:00:00 8.10278 C 94.6701 % 7.3 C
53 28-10-2015 00:00:00 9.54444 C 91.5382 % 8.24 C
54 29-10-2015 00:00:00 10.48299 C 92.5799 % 9.33 C
55 30-10-2015 00:00:00 7.79965 C 95.7917 % 7.17 C
56 31-10-2015 00:00:00 7.27118 C 93.9479 % 6.36 C
57 01-11-2015 00:00:00 6.57708 C 96.2118 % 6.02 C
58 02-11-2015 00:00:00 4.67431 C 96.7049 % 4.2 C
59 03-11-2015 00:00:00 4.99896 C 95.2813 % 4.31 C
60 04-11-2015 00:00:00 7.79549 C 94.1146 % 6.91 C
61 05-11-2015 00:00:00 10.38299 C 95.2569 % 9.66 C
62 06-11-2015 00:00:00 13.31493 C 92.8854 % 12.19 C
63 07-11-2015 00:00:00 16.40417 C 94.1493 % 15.46 C
64 08-11-2015 00:00:00 12.97292 C 95.2118 % 12.23 C
65 09-11-2015 00:00:00 14.80846 C 83.2353 % 11.99 C
66 10-11-2015 00:00:00 13.07951 C 84.1493 % 10.47 C
67 11-11-2015 00:00:00 11.7066 C 84.5625 % 9.2 C
68 12-11-2015 00:00:00 11.71562 C 87.6354 % 9.73 C
69 13-11-2015 00:00:00 10.51875 C 88.3993 % 8.68 C
70 14-11-2015 00:00:00 8.91806 C 83.4722 % 6.27 C
71 15-11-2015 00:00:00 12.53854 C 84.1944 % 9.95 C
72 16-11-2015 00:00:00 11.63438 C 83.7708 % 8.99 C
73 17-11-2015 00:00:00 14.03889 C 89.3438 % 12.31 C
74 18-11-2015 00:00:00 13.87604 C 73.4063 % 9.21 C
75 19-11-2015 00:00:00 12.23611 C 85.8750 % 9.94 C
Sensor: Nr:Datum:Temp:Feuchte:Taupunkt:
Aussen-T/F 76 20-11-2015 00:00:00 7.64444 C 94.6667 % 6.84 C
77 21-11-2015 00:00:00 3.88021 C 91.2500 % 2.59 C
78 22-11-2015 00:00:00 2.85139 C 91.2396 % 1.57 C
79 23-11-2015 00:00:00 2.48125 C 91.7917 % 1.29 C
80 24-11-2015 00:00:00 1.88785 C 89.9931 % 0.42 C
81 25-11-2015 00:00:00 4.63646 C 91.6528 % 3.4 C
82 26-11-2015 00:00:00 4.92257 C 92.5174 % 3.81 C
83 27-11-2015 00:00:00 2.23299 C 94.7951 % 1.49 C
84 28-11-2015 00:00:00 4.42821 C 85.6357 % 2.24 C
85 29-11-2015 00:00:00 9.10451 C 86.0660 % 6.9 C
86 30-11-2015 00:00:00 9.89514 C 90.3056 % 8.38 C
87 01-12-2015 00:00:00 11.24618 C 92.4410 % 10.07 C
88 02-12-2015 00:00:00 9.85729 C 87.9375 % 7.96 C
89 03-12-2015 00:00:00 7.55664 C 86.3252 % 5.42 C
90 04-12-2015 00:00:00 6.93333 C 91.5694 % 5.66 C
91 05-12-2015 00:00:00 6.05903 C 89.7500 % 4.51 C
92 06-12-2015 00:00:00 8.44861 C 86.8160 % 6.38 C
93 07-12-2015 00:00:00 8.35868 C 92.6840 % 7.24 C
94 08-12-2015 00:00:00 4.51007 C 97.2292 % 4.11 C
95 09-12-2015 00:00:00 6.58229 C 94.7396 % 5.8 C
96 10-12-2015 00:00:00 3.22882 C 93.5590 % 2.29 C
97 11-12-2015 00:00:00 4.75451 C 92.5069 % 3.65 C
98 12-12-2015 00:00:00 8.05903 C 95.3681 % 7.36 C
99 13-12-2015 00:00:00 8.6316 C 90.9167 % 7.23 C
100 14-12-2015 00:00:00 5.9875 C 96.5243 % 5.48 C
Sensor: Nr:Datum:Temp:Feuchte:Taupunkt:
Aussen-T/F 101 15-12-2015 00:00:00 5.6816 C 96.2813 % 5.14 C
102 16-12-2015 00:00:00 9.66146 C 97.4514 % 9.28 C
103 17-12-2015 00:00:00 12.51647 C 94.1098 % 11.6 C
104 18-12-2015 00:00:00 11.17396 C 93.8472 % 10.22 C
105 19-12-2015 00:00:00 11.26667 C 91.7708 % 9.98 C
106 20-12-2015 00:00:00 7.84687 C 96.5278 % 7.33 C
107 21-12-2015 00:00:00 10.07014 C 88.0938 % 8.19 C
108 22-12-2015 00:00:00 11.62281 C 82.5175 % 8.75 C
109 23-12-2015 00:00:00 10.964 C 81.0000 % 7.83 C
110 24-12-2015 00:00:00 11.76867 C 85.1506 % 9.36 C
111 25-12-2015 00:00:00 11.08646 C 87.9063 % 9.16 C
112 26-12-2015 00:00:00 10.37257 C 87.6354 % 8.41 C
113 27-12-2015 00:00:00 7.5375 C 92.7847 % 6.45 C
114 28-12-2015 00:00:00 2.6941 C 97.0833 % 2.28 C
115 29-12-2015 00:00:00 3.10521 C 97.6493 % 2.77 C
116 30-12-2015 00:00:00 4.88299 C 93.8507 % 3.98 C
117 31-12-2015 00:00:00 5.0934 C 93.0000 % 4.06 C
118 01-01-2016 00:00:00 4.17222 C 95.5521 % 3.53 C
119 02-01-2016 00:00:00 4.50451 C 93.6563 % 3.57 C
120 03-01-2016 00:00:00 5.64826 C 92.3889 % 4.51 C
121 04-01-2016 00:00:00 5.3184 C 94.4861 % 4.51 C
122 05-01-2016 00:00:00 6.45694 C 91.6285 % 5.2 C
123 06-01-2016 00:00:00 5.95903 C 94.3542 % 5.12 C
124 07-01-2016 00:00:00 5.04028 C 94.1042 % 4.17 C
125 08-01-2016 00:00:00 3.28646 C 90.7396 % 1.92 C
Sensor: Nr:Datum:Temp:Feuchte:Taupunkt:
Aussen-T/F 126 09-01-2016 00:00:00 1.12292 C 97.2361 % 0.73 C
127 10-01-2016 00:00:00 6.27708 C 91.8785 % 5.06 C
128 11-01-2016 00:00:00 5.25729 C 94.6875 % 4.48 C
129 12-01-2016 00:00:00 5.58229 C 88.8229 % 3.89 C
130 13-01-2016 00:00:00 4.93333 C 89.9931 % 3.43 C
131 14-01-2016 00:00:00 3.31701 C 89.1944 % 1.71 C
132 15-01-2016 00:00:00 2.89062 C 90.6806 % 1.52 C
133 16-01-2016 00:00:00 2.0875 C 90.9653 % 0.77 C
134 17-01-2016 00:00:00 0.26424 C 83.9583 % -2.12 C
135 18-01-2016 00:00:00 -4.85799 C 90.6840 % -6.14 C
136 19-01-2016 00:00:00 -5.27882 C 89.7257 % -6.7 C
137 20-01-2016 00:00:00 -1.61806 C 91.4618 % -2.82 C
138 21-01-2016 00:00:00 0.6684 C 92.9618 % -0.34 C
139 22-01-2016 00:00:00 -2.10729 C 91.9201 % -3.24 C
140 23-01-2016 00:00:00 4.1559 C 94.7465 % 3.39 C
141 24-01-2016 00:00:00 5.37396 C 93.7882 % 4.46 C
142 25-01-2016 00:00:00 7.51076 C 93.2813 % 6.5 C
143 26-01-2016 00:00:00 9.35729 C 85.4410 % 7.04 C
144 27-01-2016 00:00:00 11.44792 C 70.5313 % 6.29 C
145 28-01-2016 00:00:00 7.3625 C 85.9931 % 5.18 C
146 29-01-2016 00:00:00 5.64583 C 86.0833 % 3.51 C
147 30-01-2016 00:00:00 7.42914 C 86.8885 % 5.39 C
148 31-01-2016 00:00:00 6.31944 C 89.3819 % 4.7 C
149 01-02-2016 00:00:00 11.92326 C 84.3993 % 9.38 C
150 02-02-2016 00:00:00 10.40035 C 86.6354 % 8.27 C
Sensor: Nr:Datum:Temp:Feuchte:Taupunkt:
Aussen-T/F 151 03-02-2016 00:00:00 5.14306 C 85.1354 % 2.86 C
152 04-02-2016 00:00:00 4.62118 C 90.7153 % 3.24 C
153 05-02-2016 00:00:00 7.46076 C 91.2847 % 6.13 C
154 06-02-2016 00:00:00 8.36806 C 86.5069 % 6.25 C
155 07-02-2016 00:00:00 9.22743 C 76.8021 % 5.37 C
156 08-02-2016 00:00:00 8.09062 C 80.4167 % 4.93 C
157 09-02-2016 00:00:00 7.11076 C 85.9306 % 4.92 C
158 10-02-2016 00:00:00 4.86562 C 85.1493 % 2.59 C
159 11-02-2016 00:00:00 4.89444 C 87.2674 % 2.96 C
160 12-02-2016 00:00:00 3.0316 C 85.9826 % 0.92 C
161 13-02-2016 00:00:00 1.57049 C 93.5625 % 0.65 C
162 14-02-2016 00:00:00 4.64965 C 94.9931 % 3.92 C
163 15-02-2016 00:00:00 2.20278 C 91.7396 % 1 C
164 16-02-2016 00:00:00 0.19792 C 81.4688 % -2.59 C
165 17-02-2016 00:00:00 0.40625 C 88.6771 % -1.24 C
166 18-02-2016 00:00:00 2.11285 C 85.4514 % -0.07 C
167 19-02-2016 00:00:00 1.43507 C 92.3472 % 0.33 C
168 20-02-2016 00:00:00 6.41528 C 92.1944 % 5.24 C
169 21-02-2016 00:00:00 11.8375 C 88.1042 % 9.93 C
170 22-02-2016 00:00:00 9.57778 C 85.1250 % 7.21 C
171 23-02-2016 00:00:00 2.26424 C 95.8333 % 1.67 C
172 24-02-2016 00:00:00 2.15243 C 91.2674 % 0.88 C
173 25-02-2016 00:00:00 0.66597 C 90.3507 % -0.73 C
174 26-02-2016 00:00:00 2.36771 C 85.4931 % 0.19 C
175 27-02-2016 00:00:00 2.35694 C 77.3333 % -1.19 C
Sensor: Nr:Datum:Temp:Feuchte:Taupunkt:
Aussen-T/F 176 28-02-2016 00:00:00 2.12509 C 77.4145 % -1.4 C
177 29-02-2016 00:00:00 3.32569 C 70.7847 % -1.46 C
178 01-03-2016 00:00:00 1.1875 C 81.7361 % -1.58 C
179 02-03-2016 00:00:00 6.5125 C 83.4375 % 3.91 C
180 03-03-2016 00:00:00 3.61736 C 87.0208 % 1.66 C
181 04-03-2016 00:00:00 1.76528 C 93.4722 % 0.83 C
182 05-03-2016 00:00:00 4.32153 C 92.1042 % 3.16 C
183 06-03-2016 00:00:00 3.0434 C 94.2535 % 2.21 C
184 07-03-2016 00:00:00 2.40347 C 93.7049 % 1.5 C
185 08-03-2016 00:00:00 1.75521 C 90.5972 % 0.39 C
186 09-03-2016 00:00:00 2.60799 C 83.1042 % 0.04 C
187 10-03-2016 00:00:00 2.73576 C 83.8264 % 0.28 C
188 11-03-2016 00:00:00 4.25868 C 83.4757 % 1.71 C
189 12-03-2016 00:00:00 4.36424 C 78.1215 % 0.9 C
190 13-03-2016 00:00:00 5.06944 C 77.3924 % 1.45 C
191 14-03-2016 00:00:00 4.20451 C 71.0174 % -0.57 C
192 15-03-2016 00:00:00 3.53264 C 80.5833 % 0.52 C
193 16-03-2016 00:00:00 4.7066 C 73.0556 % 0.3 C
194 17-03-2016 00:00:00 4.57049 C 75.0625 % 0.54 C
195 18-03-2016 00:00:00 3.8934 C 83.0868 % 1.29 C
196 19-03-2016 00:00:00 5.67465 C 87.0938 % 3.7 C
197 20-03-2016 00:00:00 5.89583 C 80.9514 % 2.88 C
198 21-03-2016 00:00:00 7.0625 C 84.7813 % 4.68 C
199 22-03-2016 00:00:00 8.10035 C 79.6354 % 4.8 C
200 23-03-2016 00:00:00 7.93438 C 81.8576 % 5.03 C
Sensor: Nr:Datum:Temp:Feuchte:Taupunkt:
Aussen-T/F 201 24-03-2016 00:00:00 7.05069 C 85.9410 % 4.86 C
202 25-03-2016 00:00:00 6.93125 C 92.5347 % 5.81 C
203 26-03-2016 00:00:00 9.02778 C 82.5382 % 6.22 C
204 27-03-2016 00:00:00 9.36558 C 82.0543 % 6.46 C
205 28-03-2016 00:00:00 8.24167 C 84.3993 % 5.77 C
206 29-03-2016 00:00:00 9.19792 C 74.2535 % 4.86 C
207 30-03-2016 00:00:00 9.98958 C 84.7431 % 7.54 C
208 31-03-2016 00:00:00 7.10243 C 92.7153 % 6 C
209 01-04-2016 00:00:00 7.02396 C 85.1076 % 4.7 C
210 02-04-2016 00:00:00 8.56007 C 85.2361 % 6.23 C
211 03-04-2016 00:00:00 13.56285 C 81.3472 % 10.43 C
212 04-04-2016 00:00:00 13.63299 C 81.7951 % 10.58 C
213 05-04-2016 00:00:00 11.25069 C 92.5313 % 10.09 C
214 06-04-2016 00:00:00 10.87153 C 79.3507 % 7.44 C
215 07-04-2016 00:00:00 8.49479 C 75.7014 % 4.46 C
216 08-04-2016 00:00:00 6.48403 C 79.6181 % 3.22 C
217 09-04-2016 00:00:00 8.00139 C 72.3785 % 3.34 C
218 10-04-2016 00:00:00 11.74757 C 69.9479 % 6.45 C
219 11-04-2016 00:00:00 12.00972 C 70.4757 % 6.81 C
220 12-04-2016 00:00:00 11.31181 C 78.9861 % 7.8 C
221 13-04-2016 00:00:00 8.81354 C 93.8854 % 7.88 C
222 14-04-2016 00:00:00 10.59722 C 80.6215 % 7.41 C
223 15-04-2016 00:00:00 13.04618 C 74.1493 % 8.55 C
224 16-04-2016 00:00:00 11.99514 C 81.5035 % 8.93 C
225 17-04-2016 00:00:00 8.41111 C 77.1875 % 4.65 C
Sensor: Nr:Datum:Temp:Feuchte:Taupunkt:
Aussen-T/F 226 18-04-2016 00:00:00 7.11632 C 74.6910 % 2.94 C
227 19-04-2016 00:00:00 8.83507 C 72.7292 % 4.22 C
228 20-04-2016 00:00:00 9.1559 C 66.4826 % 3.25 C
229 21-04-2016 00:00:00 11.43229 C 64.2431 % 4.93 C
230 22-04-2016 00:00:00 13.17674 C 62.2014 % 6.11 C
231 23-04-2016 00:00:00 7.88299 C 78.2292 % 4.33 C
232 24-04-2016 00:00:00 5.24444 C 78.5243 % 1.82 C
233 25-04-2016 00:00:00 4.71632 C 85.9792 % 2.58 C
234 26-04-2016 00:00:00 4.5934 C 82.9306 % 1.95 C
235 27-04-2016 00:00:00 5.57465 C 78.2847 % 2.1 C
236 28-04-2016 00:00:00 6.65 C 71.1007 % 1.8 C
237 29-04-2016 00:00:00 7.88056 C 69.0972 % 2.58 C
238 30-04-2016 00:00:00 7.70174 C 83.3611 % 5.06 C
239 01-05-2016 00:00:00 10.10486 C 81.5451 % 7.09 C
240 02-05-2016 00:00:00 12.06389 C 73.2674 % 7.43 C
241 03-05-2016 00:00:00 10.93785 C 75.7222 % 6.83 C
242 04-05-2016 00:00:00 9.10035 C 68.4063 % 3.6 C
243 05-05-2016 00:00:00 11.45347 C 67.3507 % 5.63 C
244 06-05-2016 00:00:00 15.34618 C 68.6806 % 9.63 C
245 07-05-2016 00:00:00 16.83542 C 65.2604 % 10.28 C
246 08-05-2016 00:00:00 18.59861 C 52.5521 % 8.72 C
247 09-05-2016 00:00:00 18.28715 C 61.7326 % 10.82 C
248 10-05-2016 00:00:00 17.08646 C 77.6076 % 13.15 C
249 11-05-2016 00:00:00 17.43438 C 75.9340 % 13.15 C
250 12-05-2016 00:00:00 17.84271 C 69.8472 % 12.27 C
Sensor: Nr:Datum:Temp:Feuchte:Taupunkt:
Aussen-T/F 251 13-05-2016 00:00:00 14.31736 C 89.5903 % 12.63 C
252 14-05-2016 00:00:00 10.45972 C 71.9549 % 5.63 C
253 15-05-2016 00:00:00 9.07743 C 70.0069 % 3.91 C
254 16-05-2016 00:00:00 9.98819 C 70.5069 % 4.88 C
255 17-05-2016 00:00:00 12.31563 C 69.0139 % 6.8 C
256 18-05-2016 00:00:00 14.47535 C 74.1007 % 9.92 C
257 19-05-2016 00:00:00 14.04722 C 75.6667 % 9.82 C
258 20-05-2016 00:00:00 14.08125 C 79.6771 % 10.63 C
259 21-05-2016 00:00:00 17.67708 C 74.5382 % 13.1 C
260 22-05-2016 00:00:00 18.70312 C 72.9201 % 13.75 C
261 23-05-2016 00:00:00 14.01632 C 83.2743 % 11.23 C
262 24-05-2016 00:00:00 10.97431 C 91.3264 % 9.62 C
263 25-05-2016 00:00:00 12.7125 C 87.5069 % 10.69 C
264 26-05-2016 00:00:00 14.89826 C 81.0938 % 11.69 C
265 27-05-2016 00:00:00 16.77849 C 90.6534 % 15.24 C
266 28-05-2016 00:00:00 18.08383 C 88.8922 % 16.22 C
267 29-05-2016 00:00:00 17.36528 C 89.6007 % 15.64 C
268 30-05-2016 00:00:00 17.49722 C 93.2639 % 16.4 C
269 31-05-2016 00:00:00 16.51458 C 87.4861 % 14.43 C
270 01-06-2016 00:00:00 15.69931 C 94.7153 % 14.85 C
271 02-06-2016 00:00:00 17.51979 C 92.0035 % 16.21 C
272 03-06-2016 00:00:00 16.76875 C 94.6806 % 15.91 C
273 04-06-2016 00:00:00 17.85104 C 90.8472 % 16.34 C
274 05-06-2016 00:00:00 19.18611 C 89.0486 % 17.34 C
275 06-06-2016 00:00:00 19.18785 C 86.9896 % 16.97 C
Sensor: Nr:Datum:Temp:Feuchte:Taupunkt:
Aussen-T/F 276 07-06-2016 00:00:00 19.88403 C 82.1597 % 16.75 C
277 08-06-2016 00:00:00 19.56354 C 77.2500 % 15.47 C
278 09-06-2016 00:00:00 17.3191 C 71.5556 % 12.13 C
279 10-06-2016 00:00:00 16.15521 C 71.4444 % 10.99 C
280 11-06-2016 00:00:00 17.56701 C 74.5035 % 12.99 C
281 12-06-2016 00:00:00 17.18299 C 86.9931 % 15 C
282 13-06-2016 00:00:00 15.94479 C 94.8472 % 15.12 C
283 14-06-2016 00:00:00 16.36597 C 87.8507 % 14.35 C
284 15-06-2016 00:00:00 15.42431 C 86.9340 % 13.26 C
285 16-06-2016 00:00:00 13.77292 C 93.5903 % 12.76 C
286 17-06-2016 00:00:00 14.68889 C 90.7882 % 13.2 C
287 18-06-2016 00:00:00 14.84861 C 87.4549 % 12.79 C
288 19-06-2016 00:00:00 15.40278 C 75.9653 % 11.19 C
289 20-06-2016 00:00:00 14.61979 C 81.8958 % 11.56 C
290 21-06-2016 00:00:00 18.21736 C 88.4757 % 16.28 C
291 22-06-2016 00:00:00 20.84792 C 87.8333 % 18.76 C
292 23-06-2016 00:00:00 23.76528 C 81.5243 % 20.41 C
293 24-06-2016 00:00:00 22.11979 C 90.4826 % 20.49 C
294 25-06-2016 00:00:00 16.85451 C 95.9306 % 16.2 C
295 26-06-2016 00:00:00 15.41562 C 85.3854 % 12.98 C
296 27-06-2016 00:00:00 15.91562 C 86.7743 % 13.72 C
297 28-06-2016 00:00:00 18.26597 C 84.3646 % 15.58 C
298 29-06-2016 00:00:00 19.04444 C 74.5521 % 14.42 C
299 30-06-2016 00:00:00 18.7566 C 80.8264 % 15.4 C
300 01-07-2016 00:00:00 19.88194 C 81.0556 % 16.54 C
Sensor: Nr:Datum:Temp:Feuchte:Taupunkt:
Aussen-T/F 301 02-07-2016 00:00:00 16.90868 C 78.6840 % 13.18 C
302 03-07-2016 00:00:00 15.21559 C 83.5437 % 12.45 C
303 04-07-2016 00:00:00 17.43333 C 82.9201 % 14.5 C
304 05-07-2016 00:00:00 19.40903 C 78.1979 % 15.51 C
305 06-07-2016 00:00:00 16.61042 C 74.0104 % 11.96 C
306 07-07-2016 00:00:00 17.08576 C 77.8785 % 13.2 C
307 08-07-2016 00:00:00 18.87222 C 80.7292 % 15.49 C
308 09-07-2016 00:00:00 21.08889 C 76.2778 % 16.75 C
309 10-07-2016 00:00:00 21.92535 C 79.2431 % 18.17 C
310 11-07-2016 00:00:00 21.61701 C 73.7326 % 16.73 C
311 12-07-2016 00:00:00 19.06354 C 74.7049 % 14.47 C
312 13-07-2016 00:00:00 14.71319 C 91.3750 % 13.32 C
313 14-07-2016 00:00:00 14.94583 C 79.4063 % 11.42 C
314 15-07-2016 00:00:00 16.08229 C 74.0417 % 11.46 C
315 16-07-2016 00:00:00 16.98542 C 83.0451 % 14.09 C
316 17-07-2016 00:00:00 21.34757 C 80.4132 % 17.84 C
317 18-07-2016 00:00:00 21.85069 C 75.3924 % 17.3 C
318 19-07-2016 00:00:00 21.61667 C 78.1597 % 17.65 C
319 20-07-2016 00:00:00 23.34097 C 74.8785 % 18.63 C
320 21-07-2016 00:00:00 21.23924 C 86.6632 % 18.93 C
321 22-07-2016 00:00:00 20.96806 C 88.7674 % 19.04 C
322 23-07-2016 00:00:00 20.3434 C 91.5104 % 18.91 C
323 24-07-2016 00:00:00 22.0941 C 85.4583 % 19.54 C
324 25-07-2016 00:00:00 21.8191 C 81.6910 % 18.55 C
325 26-07-2016 00:00:00 20.20208 C 86.3333 % 17.85 C
Sensor: Nr:Datum:Temp:Feuchte:Taupunkt:
Aussen-T/F 326 27-07-2016 00:00:00 19.62986 C 81.0313 % 16.29 C
327 28-07-2016 00:00:00 20.20174 C 82.7986 % 17.18 C
328 29-07-2016 00:00:00 19.81042 C 85.1319 % 17.24 C
329 30-07-2016 00:00:00 20.55278 C 78.7326 % 16.73 C
330 31-07-2016 00:00:00 18.14444 C 80.7535 % 14.79 C
331 01-08-2016 00:00:00 16.63958 C 78.4757 % 12.88 C
332 02-08-2016 00:00:00 16.16875 C 92.2986 % 14.92 C
333 03-08-2016 00:00:00 18.55174 C 94.0938 % 17.58 C
334 04-08-2016 00:00:00 18.01667 C 94.7188 % 17.16 C
335 05-08-2016 00:00:00 16.58403 C 88.5486 % 14.69 C
336 06-08-2016 00:00:00 17.59097 C 86.3924 % 15.29 C
337 07-08-2016 00:00:00 18.92153 C 81.4306 % 15.67 C
338 08-08-2016 00:00:00 19.25521 C 77.6701 % 15.26 C
339 09-08-2016 00:00:00 16.42986 C 72.2361 % 11.42 C
340 10-08-2016 00:00:00 13.02465 C 80.0243 % 9.66 C
341 11-08-2016 00:00:00 12.3 C 83.5417 % 9.6 C
342 12-08-2016 00:00:00 17.31701 C 90.8264 % 15.8 C
343 13-08-2016 00:00:00 20.62604 C 78.3715 % 16.73 C
344 14-08-2016 00:00:00 19.08924 C 80.5139 % 15.66 C
345 15-08-2016 00:00:00 18.95451 C 78.0243 % 15.04 C
346 16-08-2016 00:00:00 18.07778 C 75.1632 % 13.61 C
347 17-08-2016 00:00:00 18.14653 C 73.3785 % 13.31 C
348 18-08-2016 00:00:00 17.22743 C 82.1597 % 14.16 C
349 19-08-2016 00:00:00 19.36181 C 83.5174 % 16.5 C
350 20-08-2016 00:00:00 18.84757 C 83.1701 % 15.93 C
Sensor: Nr:Datum:Temp:Feuchte:Taupunkt:
Aussen-T/F 351 21-08-2016 00:00:00 17.07361 C 80.3611 % 13.67 C
352 22-08-2016 00:00:00 17.30799 C 84.0833 % 14.59 C
353 23-08-2016 00:00:00 19.09167 C 77.7708 % 15.12 C
354 24-08-2016 00:00:00 20.54583 C 77.3750 % 16.45 C
355 25-08-2016 00:00:00 21.59896 C 76.2118 % 17.23 C
356 26-08-2016 00:00:00 22.53715 C 76.8542 % 18.27 C
357 27-08-2016 00:00:00 23.96528 C 78.7674 % 20.05 C
358 28-08-2016 00:00:00 23.4684 C 72.0660 % 18.14 C
359 29-08-2016 00:00:00 18.98993 C 79.2326 % 15.31 C
360 30-08-2016 00:00:00 18.11736 C 75.7917 % 13.78 C
361 31-08-2016 00:00:00 17.84514 C 77.5278 % 13.86 C
362 01-09-2016 00:00:00 19.62431 C 75.6736 % 15.21 C
363 02-09-2016 00:00:00 18.78785 C 78.7361 % 15.02 C
364 03-09-2016 00:00:00 20.71944 C 73.6319 % 15.84 C
365 04-09-2016 00:00:00 18.18681 C 81.7396 % 15.02 C
366 05-09-2016 00:00:00 17.73715 C 79.3021 % 14.11 C
367 06-09-2016 00:00:00 16.62882 C 82.0938 % 13.56 C
368 07-09-2016 00:00:00 17.39792 C 80.3299 % 13.98 C
369 08-09-2016 00:00:00 19.44722 C 79.7535 % 15.86 C
370 09-09-2016 00:00:00 20.12222 C 70.5451 % 14.6 C
371 10-09-2016 00:00:00 19.21944 C 81.0729 % 15.89 C
372 11-09-2016 00:00:00 18.8684 C 76.5243 % 14.65 C
373 12-09-2016 00:00:00 19.58437 C 79.0764 % 15.86 C
374 13-09-2016 00:00:00 21.20937 C 77.7431 % 17.17 C
375 14-09-2016 00:00:00 20.91319 C 74.3924 % 16.19 C
Sensor: Nr:Datum:Temp:Feuchte:Taupunkt:
Aussen-T/F 376 15-09-2016 00:00:00 20.02847 C 76.3229 % 15.74 C
377 16-09-2016 00:00:00 17.33889 C 85.6076 % 14.9 C
378 17-09-2016 00:00:00 15.96146 C 85.0660 % 13.45 C
379 18-09-2016 00:00:00 17.13993 C 89.9549 % 15.48 C
380 19-09-2016 00:00:00 15.49201 C 84.4688 % 12.89 C
381 20-09-2016 00:00:00 14.8184 C 88.4965 % 12.94 C
382 21-09-2016 00:00:00 13.86563 C 78.4618 % 10.19 C
383 22-09-2016 00:00:00 11.70625 C 84.6944 % 9.22 C
384 23-09-2016 00:00:00 13.62518 C 86.6383 % 11.44 C
385 24-09-2016 00:00:00 13.82326 C 85.2188 % 11.39 C
386 25-09-2016 00:00:00 14.39201 C 85.4653 % 11.99 C
387 26-09-2016 00:00:00 14.99062 C 86.0799 % 12.68 C
388 27-09-2016 00:00:00 13.42847 C 93.2951 % 12.37 C
389 28-09-2016 00:00:00 15.2816 C 85.6632 % 12.9 C
390 29-09-2016 00:00:00 18.69375 C 79.3299 % 15.04 C
391 30-09-2016 00:00:00 15.12813 C 89.0451 % 13.34 C
392 01-10-2016 00:00:00 13.55804 C 95.6643 % 12.88 C
393 02-10-2016 00:00:00 12.49271 C 89.3333 % 10.79 C
394 03-10-2016 00:00:00 12.49236 C 92.3958 % 11.29 C
395 04-10-2016 00:00:00 10.89931 C 93.8333 % 9.95 C
396 05-10-2016 00:00:00 8.62465 C 83.2986 % 5.96 C
397 06-10-2016 00:00:00 7.98125 C 88.4201 % 6.19 C
398 07-10-2016 00:00:00 10.85069 C 93.5208 % 9.85 C
399 08-10-2016 00:00:00 9.28854 C 94.1042 % 8.39 C
400 09-10-2016 00:00:00 8.50868 C 91.9167 % 7.27 C
Sensor: Nr:Datum:Temp:Feuchte:Taupunkt:
Aussen-T/F 401 10-10-2016 00:00:00 6.46875 C 92.8993 % 5.41 C
402 11-10-2016 00:00:00 7.98993 C 90.9514 % 6.61 C
403 12-10-2016 00:00:00 8.69201 C 90.6111 % 7.24 C
404 13-10-2016 00:00:00 7.54583 C 87.7118 % 5.64 C
405 14-10-2016 00:00:00 9.31042 C 87.7674 % 7.39 C
406 15-10-2016 00:00:00 11.21667 C 90.9028 % 9.79 C
407 16-10-2016 00:00:00 8.72222 C 95.3646 % 8.02 C
408 17-10-2016 00:00:00 10.64132 C 96.5833 % 10.12 C
409 18-10-2016 00:00:00 11.33924 C 92.4236 % 10.16 C
410 19-10-2016 00:00:00 9.26389 C 89.1597 % 7.57 C
411 20-10-2016 00:00:00 8.03368 C 95.9097 % 7.42 C
412 21-10-2016 00:00:00 7.65845 C 95.9498 % 7.05 C
413 22-10-2016 00:00:00 7.80729 C 96.0000 % 7.21 C
414 23-10-2016 00:00:00 6.84236 C 95.3368 % 6.15 C
415 24-10-2016 00:00:00 9.37778 C 96.9931 % 8.93 C
416 25-10-2016 00:00:00 11.21424 C 95.8507 % 10.58 C
417 26-10-2016 00:00:00 9.47049 C 94.1597 % 8.58 C
418 27-10-2016 00:00:00 8.9309 C 95.3750 % 8.23 C
419 28-10-2016 00:00:00 11.35833 C 91.6597 % 10.05 C
420 29-10-2016 00:00:00 11.58854 C 90.4965 % 10.09 C
421 30-10-2016 00:00:00 7.61215 C 95.8229 % 6.99 C
422 31-10-2016 00:00:00 7.10417 C 96.0694 % 6.52 C
423 01-11-2016 00:00:00 6.92431 C 97.0694 % 6.49 C
424 02-11-2016 00:00:00 7.39618 C 91.7292 % 6.14 C
425 03-11-2016 00:00:00 6.31493 C 91.8819 % 5.09 C
Sensor: Nr:Datum:Temp:Feuchte:Taupunkt:
Aussen-T/F 426 04-11-2016 00:00:00 4.72674 C 94.8819 % 3.98 C
427 05-11-2016 00:00:00 6.88299 C 96.7118 % 6.4 C
428 06-11-2016 00:00:00 5.54201 C 89.6458 % 3.98 C
429 07-11-2016 00:00:00 4.69097 C 93.6354 % 3.75 C
430 08-11-2016 00:00:00 3.20521 C 92.4167 % 2.1 C
431 09-11-2016 00:00:00 3.69722 C 94.5417 % 2.9 C
432 10-11-2016 00:00:00 5.22847 C 94.8403 % 4.47 C
433 11-11-2016 00:00:00 5.08785 C 96.2569 % 4.54 C
434 12-11-2016 00:00:00 2.06181 C 93.0764 % 1.06 C
435 13-11-2016 00:00:00 2.12049 C 91.5347 % 0.89 C
436 14-11-2016 00:00:00 -0.38611 C 93.0799 % -1.37 C
437 15-11-2016 00:00:00 4.75208 C 92.9931 % 3.72 C
438 16-11-2016 00:00:00 9.88715 C 95.6910 % 9.23 C
439 17-11-2016 00:00:00 10.99757 C 89.4340 % 9.33 C
440 18-11-2016 00:00:00 9.44792 C 85.6667 % 7.17 C
441 19-11-2016 00:00:00 5.51319 C 87.6146 % 3.63 C
442 20-11-2016 00:00:00 9.3559 C 81.1806 % 6.3 C
443 21-11-2016 00:00:00 10.27813 C 92.0208 % 9.04 C
444 22-11-2016 00:00:00 10.22222 C 93.8160 % 9.27 C
445 23-11-2016 00:00:00 8.56389 C 96.9931 % 8.11 C
446 24-11-2016 00:00:00 8.79306 C 94.5590 % 7.97 C
447 25-11-2016 00:00:00 7.72222 C 85.3924 % 5.43 C
448 26-11-2016 00:00:00 6.87708 C 88.3542 % 5.09 C
449 27-11-2016 00:00:00 5.11215 C 92.9514 % 4.07 C
450 28-11-2016 00:00:00 -0.13333 C 93.4583 % -1.06 C
Sensor: Nr:Datum:Temp:Feuchte:Taupunkt:
Aussen-T/F 451 29-11-2016 00:00:00 -2.74097 C 91.0382 % -4 C
452 30-11-2016 00:00:00 -2.71076 C 92.1319 % -3.81 C
453 01-12-2016 00:00:00 3.3875 C 84.6354 % 1.05 C
454 02-12-2016 00:00:00 5.17361 C 93.7917 % 4.26 C
455 03-12-2016 00:00:00 -0.32882 C 96.9410 % -0.75 C
456 04-12-2016 00:00:00 -2.61215 C 96.1840 % -3.13 C
457 05-12-2016 00:00:00 -3.83507 C 95.3438 % -4.47 C
458 06-12-2016 00:00:00 -3.15903 C 95.5972 % -3.76 C
459 07-12-2016 00:00:00 -0.29965 C 96.1111 % -0.84 C
460 08-12-2016 00:00:00 1.07778 C 94.8542 % 0.35 C
461 09-12-2016 00:00:00 6.58819 C 84.4861 % 4.17 C
462 10-12-2016 00:00:00 5.04201 C 91.7743 % 3.82 C
463 11-12-2016 00:00:00 8.10174 C 85.5174 % 5.82 C
464 12-12-2016 00:00:00 6.76563 C 92.9792 % 5.71 C
465 13-12-2016 00:00:00 4.10868 C 96.3160 % 3.58 C
466 14-12-2016 00:00:00 6.42569 C 95.7986 % 5.81 C
467 15-12-2016 00:00:00 6.89583 C 94.3924 % 6.06 C
468 16-12-2016 00:00:00 4.60451 C 88.2778 % 2.84 C
469 17-12-2016 00:00:00 3.86806 C 91.7222 % 2.65 C
470 18-12-2016 00:00:00 5.3059 C 94.3750 % 4.48 C
471 19-12-2016 00:00:00 4.3816 C 89.4236 % 2.8 C
472 20-12-2016 00:00:00 1.0875 C 91.6424 % -0.12 C
473 21-12-2016 00:00:00 2.26076 C 91.9444 % 1.09 C
474 22-12-2016 00:00:00 3.84896 C 93.6701 % 2.92 C
475 23-12-2016 00:00:00 4.14757 C 95.4340 % 3.48 C
Sensor: Nr:Datum:Temp:Feuchte:Taupunkt:
Aussen-T/F 476 24-12-2016 00:00:00 7.17188 C 86.6597 % 5.1 C
477 25-12-2016 00:00:00 8.5434 C 89.2674 % 6.88 C
478 26-12-2016 00:00:00 7.71215 C 88.2118 % 5.89 C
479 27-12-2016 00:00:00 4.30139 C 88.8160 % 2.62 C
480 28-12-2016 00:00:00 3.53819 C 90.0035 % 2.06 C
481 29-12-2016 00:00:00 -1.78438 C 96.3299 % -2.29 C
482 30-12-2016 00:00:00 -2.37014 C 96.3924 % -2.86 C
483 31-12-2016 00:00:00 -4.09028 C 95.6424 % -4.68 C
484 01-01-2017 00:00:00 -2.24792 C 95.3854 % -2.88 C
485 02-01-2017 00:00:00 0.68021 C 94.3229 % -0.12 C
486 03-01-2017 00:00:00 1.83819 C 91.4340 % 0.59 C
487 04-01-2017 00:00:00 3.52049 C 90.0556 % 2.05 C
488 05-01-2017 00:00:00 0.04687 C 83.2813 % -2.44 C
489 06-01-2017 00:00:00 -6.48125 C 90.3090 % -7.8 C
490 07-01-2017 00:00:00 -4.20694 C 86.7674 % -6.08 C
491 08-01-2017 00:00:00 0.59306 C 95.4583 % -0.05 C
492 09-01-2017 00:00:00 2.15 C 93.8819 % 1.27 C
493 10-01-2017 00:00:00 1.40799 C 95.5625 % 0.78 C
494 11-01-2017 00:00:00 3.72639 C 93.5799 % 2.79 C
495 12-01-2017 00:00:00 4.3066 C 88.2396 % 2.54 C
496 13-01-2017 00:00:00 2.18576 C 91.4097 % 0.94 C
497 14-01-2017 00:00:00 2.66806 C 85.3611 % 0.46 C
498 15-01-2017 00:00:00 0.83819 C 92.1910 % -0.28 C
499 16-01-2017 00:00:00 -1.62361 C 93.6910 % -2.5 C
500 17-01-2017 00:00:00 -3.91493 C 91.1875 % -5.14 C
Sensor: Nr:Datum:Temp:Feuchte:Taupunkt:
Aussen-T/F 501 18-01-2017 00:00:00 -5.38646 C 91.6875 % -6.52 C
502 19-01-2017 00:00:00 -6.17292 C 92.2153 % -7.23 C
503 20-01-2017 00:00:00 -6.54167 C 91.1458 % -7.74 C
504 21-01-2017 00:00:00 -5.94167 C 92.0660 % -7.02 C
505 22-01-2017 00:00:00 -7.48889 C 92.6806 % -8.47 C
506 23-01-2017 00:00:00 -5.41458 C 93.0035 % -6.36 C
507 24-01-2017 00:00:00 -0.75035 C 91.2257 % -2 C
508 25-01-2017 00:00:00 -1.16701 C 83.8021 % -3.55 C
509 26-01-2017 00:00:00 -1.71667 C 84.5069 % -3.98 C
510 27-01-2017 00:00:00 -3.44306 C 90.2188 % -4.81 C
511 28-01-2017 00:00:00 -1.90347 C 90.7083 % -3.22 C
512 29-01-2017 00:00:00 2.8691 C 91.9722 % 1.7 C
513 30-01-2017 00:00:00 4.73507 C 94.6528 % 3.95 C
514 31-01-2017 00:00:00 3.29583 C 91.5174 % 2.05 C
515 01-02-2017 00:00:00 3.48611 C 87.9896 % 1.69 C
516 02-02-2017 00:00:00 5.1434 C 94.4132 % 4.32 C
517 03-02-2017 00:00:00 5.66007 C 94.2396 % 4.81 C
518 04-02-2017 00:00:00 6.00556 C 89.9549 % 4.49 C
519 05-02-2017 00:00:00 4.83993 C 91.1181 % 3.52 C
520 06-02-2017 00:00:00 3.82396 C 89.6493 % 2.28 C
521 07-02-2017 00:00:00 4.2184 C 89.5347 % 2.66 C
522 08-02-2017 00:00:00 2.98785 C 85.8160 % 0.85 C
523 09-02-2017 00:00:00 0.05903 C 84.0729 % -2.3 C
524 10-02-2017 00:00:00 0.67222 C 82.7813 % -1.91 C
525 11-02-2017 00:00:00 1.79896 C 93.6910 % 0.89 C
Sensor: Nr:Datum:Temp:Feuchte:Taupunkt:
Aussen-T/F 526 12-02-2017 00:00:00 2.74132 C 92.1215 % 1.59 C
527 13-02-2017 00:00:00 3.48576 C 82.9653 % 0.87 C
528 14-02-2017 00:00:00 1.66042 C 85.0833 % -0.57 C
529 15-02-2017 00:00:00 2.27639 C 90.1181 % 0.83 C
530 16-02-2017 00:00:00 4.06597 C 95.0382 % 3.34 C
531 17-02-2017 00:00:00 6.02222 C 95.7882 % 5.4 C
532 18-02-2017 00:00:00 5.94097 C 89.9375 % 4.42 C
533 19-02-2017 00:00:00 3.47083 C 91.4722 % 2.22 C
534 20-02-2017 00:00:00 8.45104 C 91.1111 % 7.09 C
535 21-02-2017 00:00:00 10.41458 C 92.1806 % 9.2 C
536 22-02-2017 00:00:00 11.10243 C 86.9167 % 9.01 C
537 23-02-2017 00:00:00 9.37708 C 82.3160 % 6.52 C
538 24-02-2017 00:00:00 5.21007 C 80.1215 % 2.07 C
539 25-02-2017 00:00:00 3.83993 C 84.8889 % 1.54 C
540 26-02-2017 00:00:00 8.62951 C 75.2188 % 4.5 C
541 27-02-2017 00:00:00 10.96042 C 73.1771 % 6.35 C
542 28-02-2017 00:00:00 5.79618 C 82.1285 % 2.99 C
543 01-03-2017 00:00:00 6.67257 C 86.8229 % 4.64 C
544 02-03-2017 00:00:00 8.27986 C 68.5764 % 2.85 C
545 03-03-2017 00:00:00 6.21771 C 76.6840 % 2.44 C
546 04-03-2017 00:00:00 10.95451 C 72.5382 % 6.22 C
547 05-03-2017 00:00:00 7.21354 C 86.9063 % 5.18 C
548 06-03-2017 00:00:00 6.48333 C 88.9306 % 4.79 C
549 07-03-2017 00:00:00 6.06806 C 92.0243 % 4.87 C
550 08-03-2017 00:00:00 5.01528 C 95.6597 % 4.38 C
Sensor: Nr:Datum:Temp:Feuchte:Taupunkt:
Aussen-T/F 551 09-03-2017 00:00:00 11.11146 C 85.3472 % 8.75 C
552 10-03-2017 00:00:00 7.4684 C 74.9896 % 3.33 C
553 11-03-2017 00:00:00 6.7316 C 76.7847 % 2.95 C
554 12-03-2017 00:00:00 6.62813 C 73.0590 % 2.15 C
555 13-03-2017 00:00:00 6.71007 C 76.5278 % 2.88 C
556 14-03-2017 00:00:00 9.45625 C 79.7708 % 6.14 C
557 15-03-2017 00:00:00 10.41493 C 79.8819 % 7.1 C
558 16-03-2017 00:00:00 8.32569 C 79.1250 % 4.93 C
559 17-03-2017 00:00:00 8.68507 C 77.3438 % 4.95 C
560 18-03-2017 00:00:00 9.53889 C 87.9514 % 7.64 C
561 19-03-2017 00:00:00 12.1559 C 84.9444 % 9.7 C
562 20-03-2017 00:00:00 11.60278 C 74.2986 % 7.19 C
563 21-03-2017 00:00:00 9.375 C 83.3090 % 6.69 C
564 22-03-2017 00:00:00 5.39132 C 87.9861 % 3.57 C
565 23-03-2017 00:00:00 8.8434 C 81.9097 % 5.93 C
566 24-03-2017 00:00:00 9.49444 C 76.3194 % 5.54 C
567 25-03-2017 00:00:00 9.21424 C 65.5590 % 3.11 C
568 26-03-2017 00:00:00 9.36594 C 63.8080 % 2.87 C
569 27-03-2017 00:00:00 8.83194 C 64.8194 % 2.59 C
570 28-03-2017 00:00:00 10.73819 C 69.2431 % 5.34 C
571 29-03-2017 00:00:00 12.89063 C 73.7014 % 8.31 C
572 30-03-2017 00:00:00 14.33507 C 72.3819 % 9.44 C
573 31-03-2017 00:00:00 13.69896 C 69.0938 % 8.14 C
574 01-04-2017 00:00:00 13.59792 C 71.9792 % 8.65 C
575 02-04-2017 00:00:00 11.71736 C 74.2222 % 7.29 C
Sensor: Nr:Datum:Temp:Feuchte:Taupunkt:
Aussen-T/F 576 03-04-2017 00:00:00 10.47257 C 76.1042 % 6.45 C
577 04-04-2017 00:00:00 9.3059 C 73.6285 % 4.85 C
578 05-04-2017 00:00:00 8.78889 C 75.9444 % 4.79 C
579 06-04-2017 00:00:00 8.65278 C 73.7292 % 4.23 C
580 07-04-2017 00:00:00 11.31566 C 70.4578 % 6.14 C
581 08-04-2017 00:00:00 14.59887 C 63.6780 % 7.8 C
582 09-04-2017 00:00:00 12.46215 C 72.6910 % 7.7 C
583 10-04-2017 00:00:00 10.93993 C 75.5174 % 6.79 C
584 11-04-2017 00:00:00 9.67188 C 68.7778 % 4.22 C
585 12-04-2017 00:00:00 11.34167 C 67.3993 % 5.53 C
586 13-04-2017 00:00:00 11.57153 C 68.3403 % 5.95 C
587 14-04-2017 00:00:00 9.77708 C 68.5660 % 4.28 C
588 15-04-2017 00:00:00 9.0875 C 81.6493 % 6.12 C
589 16-04-2017 00:00:00 7.52083 C 79.0590 % 4.13 C
590 17-04-2017 00:00:00 6.82257 C 84.8090 % 4.45 C
591 18-04-2017 00:00:00 5.52187 C 80.9167 % 2.51 C
592 19-04-2017 00:00:00 4.23646 C 70.6042 % -0.62 C
593 20-04-2017 00:00:00 4.68715 C 68.7882 % -0.54 C
594 21-04-2017 00:00:00 7.98299 C 70.7431 % 3 C
595 22-04-2017 00:00:00 9.60278 C 72.4063 % 4.89 C
596 23-04-2017 00:00:00 7.34722 C 68.6632 % 1.98 C
597 24-04-2017 00:00:00 8.25764 C 68.6424 % 2.84 C
598 25-04-2017 00:00:00 8.07118 C 68.6493 % 2.67 C
599 26-04-2017 00:00:00 7.03611 C 68.0208 % 1.55 C
600 27-04-2017 00:00:00 7.07917 C 67.6528 % 1.51 C
Sensor: Nr:Datum:Temp:Feuchte:Taupunkt:
Aussen-T/F 601 28-04-2017 00:00:00 6.15972 C 79.5104 % 2.89 C
602 29-04-2017 00:00:00 8.79132 C 71.5069 % 3.93 C
603 30-04-2017 00:00:00 11.04896 C 60.7951 % 3.78 C
604 01-05-2017 00:00:00 10.13576 C 85.0347 % 7.74 C
605 02-05-2017 00:00:00 9.00868 C 95.4549 % 8.32 C
606 03-05-2017 00:00:00 10.15694 C 90.6042 % 8.69 C
607 04-05-2017 00:00:00 11.64722 C 89.7361 % 10.02 C
608 05-05-2017 00:00:00 11.58021 C 81.0417 % 8.44 C
609 06-05-2017 00:00:00 12.91042 C 78.0139 % 9.17 C
610 07-05-2017 00:00:00 13.1434 C 93.6319 % 12.14 C
611 08-05-2017 00:00:00 9.64306 C 86.9063 % 7.57 C
612 09-05-2017 00:00:00 9.69931 C 70.4861 % 4.6 C
613 10-05-2017 00:00:00 10.29583 C 70.5590 % 5.19 C
614 11-05-2017 00:00:00 14.23542 C 73.0590 % 9.48 C
615 12-05-2017 00:00:00 15.89479 C 85.6250 % 13.49 C
616 13-05-2017 00:00:00 17.24514 C 75.3472 % 12.85 C
617 14-05-2017 00:00:00 16.17049 C 80.8993 % 12.89 C
618 15-05-2017 00:00:00 15.43403 C 72.0104 % 10.42 C
619 16-05-2017 00:00:00 18.86458 C 61.2049 % 11.24 C
620 17-05-2017 00:00:00 20.20243 C 65.0521 % 13.43 C
621 18-05-2017 00:00:00 17.96042 C 84.5729 % 15.32 C
622 19-05-2017 00:00:00 13.45694 C 96.0694 % 12.84 C
623 20-05-2017 00:00:00 12.04375 C 83.9931 % 9.43 C
624 21-05-2017 00:00:00 13.43889 C 75.2118 % 9.14 C
625 22-05-2017 00:00:00 16.05417 C 73.8090 % 11.39 C
Sensor: Nr:Datum:Temp:Feuchte:Taupunkt:
Aussen-T/F 626 23-05-2017 00:00:00 18.46736 C 69.4410 % 12.78 C
627 24-05-2017 00:00:00 16.81771 C 73.7639 % 12.11 C
628 25-05-2017 00:00:00 18.59167 C 70.2604 % 13.07 C
629 26-05-2017 00:00:00 18.71042 C 70.8472 % 13.31 C
630 27-05-2017 00:00:00 21.17049 C 66.6285 % 14.72 C
631 28-05-2017 00:00:00 21.21493 C 78.3993 % 17.31 C
632 29-05-2017 00:00:00 23.54271 C 75.5660 % 18.97 C
633 30-05-2017 00:00:00 21.97847 C 74.9549 % 17.33 C
634 31-05-2017 00:00:00 18.61667 C 68.5278 % 12.72 C
635 01-06-2017 00:00:00 18.99792 C 71.5590 % 13.74 C
636 02-06-2017 00:00:00 19.04583 C 83.6771 % 16.22 C
637 03-06-2017 00:00:00 18.89236 C 93.4132 % 17.81 C
638 04-06-2017 00:00:00 16.44306 C 84.5556 % 13.83 C
639 05-06-2017 00:00:00 16.50278 C 76.9792 % 12.46 C
640 06-06-2017 00:00:00 15.18958 C 77.8750 % 11.36 C
641 07-06-2017 00:00:00 13.87778 C 75.5347 % 9.63 C
642 08-06-2017 00:00:00 18.08924 C 68.5382 % 12.21 C
643 09-06-2017 00:00:00 16.93299 C 81.6319 % 13.77 C
644 10-06-2017 00:00:00 17.78368 C 70.4792 % 12.35 C
645 11-06-2017 00:00:00 20.38229 C 71.8993 % 15.15 C
646 12-06-2017 00:00:00 20.21667 C 59.4410 % 12.07 C
647 13-06-2017 00:00:00 17.4059 C 67.4549 % 11.32 C
648 14-06-2017 00:00:00 18.66597 C 69.6042 % 13 C
649 15-06-2017 00:00:00 21.18299 C 70.3333 % 15.57 C
650 16-06-2017 00:00:00 18.97743 C 62.8646 % 11.75 C
Sensor: Nr:Datum:Temp:Feuchte:Taupunkt:
Aussen-T/F 651 17-06-2017 00:00:00 17.05035 C 76.4444 % 12.88 C
652 18-06-2017 00:00:00 21.54514 C 69.8229 % 15.8 C
653 19-06-2017 00:00:00 22.06667 C 64.3160 % 15.02 C
654 20-06-2017 00:00:00 23.55069 C 62.5590 % 15.99 C
655 21-06-2017 00:00:00 25.2191 C 62.1146 % 17.45 C
656 22-06-2017 00:00:00 23.325 C 77.8264 % 19.23 C
657 23-06-2017 00:00:00 22.47014 C 68.4063 % 16.36 C
658 24-06-2017 00:00:00 20.09028 C 64.8924 % 13.28 C
659 25-06-2017 00:00:00 20.12639 C 70.0938 % 14.51 C
660 26-06-2017 00:00:00 21.1184 C 67.1667 % 14.79 C
661 27-06-2017 00:00:00 18.80104 C 85.3229 % 16.29 C
662 28-06-2017 00:00:00 19.80208 C 90.8299 % 18.26 C
663 29-06-2017 00:00:00 17.97535 C 86.2396 % 15.64 C
664 30-06-2017 00:00:00 17.41624 C 77.3875 % 13.42 C
665 01-07-2017 00:00:00 16.45451 C 89.6250 % 14.74 C
666 02-07-2017 00:00:00 16.87188 C 88.2361 % 14.91 C
667 03-07-2017 00:00:00 17.94201 C 72.9201 % 13.02 C
668 04-07-2017 00:00:00 19.98993 C 68.9375 % 14.12 C
669 05-07-2017 00:00:00 21.5875 C 69.0903 % 15.68 C
670 06-07-2017 00:00:00 21.41701 C 76.5278 % 17.12 C
671 07-07-2017 00:00:00 23.46076 C 73.7674 % 18.51 C
672 08-07-2017 00:00:00 22.5559 C 70.5035 % 16.92 C
673 09-07-2017 00:00:00 22.69271 C 74.1007 % 17.84 C
674 10-07-2017 00:00:00 19.75243 C 93.9792 % 18.76 C
675 11-07-2017 00:00:00 19.33264 C 81.8993 % 16.16 C
Sensor: Nr:Datum:Temp:Feuchte:Taupunkt:
Aussen-T/F 676 12-07-2017 00:00:00 17.22951 C 89.4514 % 15.48 C
677 13-07-2017 00:00:00 15.53958 C 75.6667 % 11.26 C
678 14-07-2017 00:00:00 16.34653 C 77.4965 % 12.41 C
679 15-07-2017 00:00:00 16.46389 C 74.5417 % 11.93 C
680 16-07-2017 00:00:00 19.03924 C 81.1215 % 15.73 C
681 17-07-2017 00:00:00 20.61007 C 81.2743 % 17.29 C
682 18-07-2017 00:00:00 21.7625 C 75.4965 % 17.24 C
683 19-07-2017 00:00:00 23.46806 C 73.3090 % 18.42 C
684 20-07-2017 00:00:00 21.83889 C 79.5764 % 18.15 C
685 21-07-2017 00:00:00 20.14583 C 71.6979 % 14.88 C
686 22-07-2017 00:00:00 21.77813 C 82.2743 % 18.62 C
687 23-07-2017 00:00:00 18.27639 C 78.7153 % 14.52 C
688 24-07-2017 00:00:00 14.9816 C 91.3681 % 13.59 C
689 25-07-2017 00:00:00 14.46979 C 96.2014 % 13.87 C
690 26-07-2017 00:00:00 17.50729 C 86.0139 % 15.14 C
691 27-07-2017 00:00:00 18.9184 C 89.6250 % 17.18 C
692 28-07-2017 00:00:00 17.14236 C 83.5694 % 14.34 C
693 29-07-2017 00:00:00 20.44271 C 81.0174 % 17.07 C
694 30-07-2017 00:00:00 22.74236 C 73.6667 % 17.8 C
695 31-07-2017 00:00:00 20.73542 C 77.8750 % 16.74 C
696 01-08-2017 00:00:00 19.90799 C 94.6424 % 19.02 C
697 02-08-2017 00:00:00 21.09306 C 86.4688 % 18.75 C
698 03-08-2017 00:00:00 21.32153 C 83.4271 % 18.4 C
699 04-08-2017 00:00:00 20.4309 C 76.2500 % 16.11 C
700 05-08-2017 00:00:00 18.99826 C 79.7326 % 15.42 C
Sensor: Nr:Datum:Temp:Feuchte:Taupunkt:
Aussen-T/F 701 06-08-2017 00:00:00 17.06181 C 74.4028 % 12.48 C
702 07-08-2017 00:00:00 17.21319 C 74.5313 % 12.65 C
703 08-08-2017 00:00:00 17.34063 C 86.7500 % 15.11 C
704 09-08-2017 00:00:00 17.64167 C 77.9826 % 13.76 C
705 10-08-2017 00:00:00 15.45139 C 94.6771 % 14.6 C
706 11-08-2017 00:00:00 14.99271 C 95.3889 % 14.26 C
707 12-08-2017 00:00:00 15.39965 C 94.4688 % 14.52 C
708 13-08-2017 00:00:00 18.25694 C 84.2813 % 15.56 C
709 14-08-2017 00:00:00 18.07396 C 87.2535 % 15.92 C
710 15-08-2017 00:00:00 18.78299 C 93.5243 % 17.72 C
711 16-08-2017 00:00:00 19.80486 C 87.2847 % 17.63 C
712 17-08-2017 00:00:00 19.18438 C 87.3125 % 17.02 C
713 18-08-2017 00:00:00 18.28819 C 94.1632 % 17.33 C
714 19-08-2017 00:00:00 14.62049 C 90.6076 % 13.1 C
715 20-08-2017 00:00:00 14.85243 C 86.3993 % 12.6 C
716 21-08-2017 00:00:00 15.85833 C 82.2049 % 12.83 C
717 22-08-2017 00:00:00 15.7316 C 84.9097 % 13.2 C
718 23-08-2017 00:00:00 17.82812 C 84.2535 % 15.14 C
719 24-08-2017 00:00:00 19.30625 C 82.1632 % 16.19 C
720 25-08-2017 00:00:00 18.12049 C 89.3993 % 16.35 C
721 26-08-2017 00:00:00 20.59861 C 92.9132 % 19.41 C
722 27-08-2017 00:00:00 19.43507 C 89.5035 % 17.66 C
723 28-08-2017 00:00:00 19.49063 C 85.7882 % 17.05 C
724 29-08-2017 00:00:00 19.97986 C 86.3507 % 17.63 C
725 30-08-2017 00:00:00 20.58819 C 89.0903 % 18.73 C
Sensor: Nr:Datum:Temp:Feuchte:Taupunkt:
Aussen-T/F 726 31-08-2017 00:00:00 17.03194 C 87.1493 % 14.88 C
727 01-09-2017 00:00:00 13.72639 C 88.3785 % 11.84 C
728 02-09-2017 00:00:00 14.2625 C 89.4271 % 12.55 C
729 03-09-2017 00:00:00 13.22257 C 87.7743 % 11.24 C
730 04-09-2017 00:00:00 13.75208 C 90.0313 % 12.15 C
731 05-09-2017 00:00:00 17.85347 C 90.3160 % 16.25 C
732 06-09-2017 00:00:00 17.36389 C 78.5868 % 13.61 C
733 07-09-2017 00:00:00 15.38472 C 80.6389 % 12.08 C
734 08-09-2017 00:00:00 15.88958 C 80.7917 % 12.6 C
735 09-09-2017 00:00:00 14.59236 C 91.5764 % 13.24 C
736 10-09-2017 00:00:00 13.23924 C 88.7951 % 11.43 C
737 11-09-2017 00:00:00 14.41667 C 84.9861 % 11.93 C
738 12-09-2017 00:00:00 14.27674 C 84.4097 % 11.69 C
739 13-09-2017 00:00:00 14.43993 C 87.5729 % 12.4 C
740 14-09-2017 00:00:00 11.98194 C 92.1076 % 10.74 C
741 15-09-2017 00:00:00 12.37917 C 88.0347 % 10.46 C
742 16-09-2017 00:00:00 10.41007 C 88.3021 % 8.56 C
743 17-09-2017 00:00:00 9.97118 C 94.9861 % 9.21 C
744 18-09-2017 00:00:00 10.50764 C 90.8785 % 9.08 C
745 19-09-2017 00:00:00 11.95903 C 92.7049 % 10.82 C
746 20-09-2017 00:00:00 11.3184 C 92.6076 % 10.17 C
747 21-09-2017 00:00:00 10.7559 C 92.2222 % 9.55 C
748 22-09-2017 00:00:00 11.39757 C 92.7222 % 10.26 C
749 23-09-2017 00:00:00 13.63785 C 89.4965 % 11.94 C
750 24-09-2017 00:00:00 12.54826 C 93.5660 % 11.54 C
Sensor: Nr:Datum:Temp:Feuchte:Taupunkt:
Aussen-T/F 751 25-09-2017 00:00:00 12.85729 C 92.9514 % 11.75 C
752 26-09-2017 00:00:00 13.54097 C 92.1389 % 12.29 C
753 27-09-2017 00:00:00 13.15069 C 94.1597 % 12.23 C
754 28-09-2017 00:00:00 14.79861 C 93.9063 % 13.83 C
755 29-09-2017 00:00:00 17.64722 C 91.7083 % 16.28 C
756 30-09-2017 00:00:00 14.56597 C 95.2326 % 13.81 C
757 01-10-2017 00:00:00 11.45937 C 95.0451 % 10.69 C
758 02-10-2017 00:00:00 14.42951 C 92.9132 % 13.3 C
759 03-10-2017 00:00:00 12.49618 C 88.9201 % 10.72 C
760 04-10-2017 00:00:00 11.37812 C 88.0972 % 9.48 C
761 05-10-2017 00:00:00 12.35868 C 85.7847 % 10.05 C
762 06-10-2017 00:00:00 9.83438 C 91.6285 % 8.54 C
763 07-10-2017 00:00:00 10.24653 C 89.7535 % 8.64 C
764 08-10-2017 00:00:00 11.93993 C 93.6181 % 10.94 C
765 09-10-2017 00:00:00 11.42222 C 93.6285 % 10.43 C
766 10-10-2017 00:00:00 13.19062 C 93.1424 % 12.11 C
767 11-10-2017 00:00:00 13.59722 C 90.6111 % 12.09 C
768 12-10-2017 00:00:00 13.7684 C 84.9618 % 11.29 C
769 13-10-2017 00:00:00 14.15556 C 91.8646 % 12.85 C
770 14-10-2017 00:00:00 13.13611 C 95.3750 % 12.41 C
771 15-10-2017 00:00:00 12.53021 C 95.9410 % 11.9 C
772 16-10-2017 00:00:00 13.45347 C 95.6215 % 12.77 C
773 17-10-2017 00:00:00 13.09201 C 95.8299 % 12.44 C
774 18-10-2017 00:00:00 12.20313 C 95.8264 % 11.56 C
775 19-10-2017 00:00:00 11.5059 C 95.8472 % 10.87 C
Sensor: Nr:Datum:Temp:Feuchte:Taupunkt:
Aussen-T/F 776 20-10-2017 00:00:00 10.5122 C 88.5610 % 8.71 C
777 21-10-2017 00:00:00 11.76076 C 91.4410 % 10.41 C
778 22-10-2017 00:00:00 10.78507 C 85.4340 % 8.44 C
779 23-10-2017 00:00:00 10.79653 C 87.4826 % 8.8 C
780 24-10-2017 00:00:00 13.69826 C 91.2465 % 12.3 C
781 25-10-2017 00:00:00 15.51111 C 87.4271 % 13.43 C
782 26-10-2017 00:00:00 13.26736 C 91.1389 % 11.85 C
783 27-10-2017 00:00:00 11.49132 C 89.5660 % 9.84 C
784 28-10-2017 00:00:00 10.36076 C 83.1944 % 7.64 C
785 29-10-2017 00:00:00 10.65694 C 82.5243 % 7.81 C
786 30-10-2017 00:00:00 7.17326 C 85.5243 % 4.91 C
787 31-10-2017 00:00:00 7.26806 C 85.6944 % 5.04 C
788 01-11-2017 00:00:00 8.73021 C 85.5313 % 6.44 C
789 02-11-2017 00:00:00 8.66389 C 87.8333 % 6.76 C
790 03-11-2017 00:00:00 7.17014 C 93.6285 % 6.21 C
791 04-11-2017 00:00:00 8.34132 C 94.7292 % 7.55 C
792 05-11-2017 00:00:00 8.89965 C 92.2083 % 7.71 C
793 06-11-2017 00:00:00 5.51424 C 92.8542 % 4.45 C
794 07-11-2017 00:00:00 4.45868 C 95.0833 % 3.74 C
795 08-11-2017 00:00:00 6.63854 C 96.5035 % 6.12 C
796 09-11-2017 00:00:00 7.54028 C 95.7569 % 6.91 C
797 10-11-2017 00:00:00 7.46563 C 90.7535 % 6.06 C
798 11-11-2017 00:00:00 6.4559 C 93.8090 % 5.53 C
799 12-11-2017 00:00:00 4.6809 C 96.1632 % 4.12 C
800 13-11-2017 00:00:00 5.61111 C 92.8125 % 4.54 C
Sensor: Nr:Datum:Temp:Feuchte:Taupunkt:
Aussen-T/F 801 14-11-2017 00:00:00 4.67951 C 94.3785 % 3.86 C
802 15-11-2017 00:00:00 6.91389 C 90.0799 % 5.4 C
803 16-11-2017 00:00:00 4.84201 C 93.1424 % 3.83 C
804 17-11-2017 00:00:00 6.01007 C 95.7535 % 5.38 C
805 18-11-2017 00:00:00 3.55278 C 91.3403 % 2.28 C
806 19-11-2017 00:00:00 5.66389 C 89.5764 % 4.09 C
807 20-11-2017 00:00:00 5.24618 C 91.6250 % 4 C
808 21-11-2017 00:00:00 9.24063 C 90.6597 % 7.79 C
809 22-11-2017 00:00:00 8.26528 C 88.1146 % 6.42 C
810 23-11-2017 00:00:00 9.3059 C 88.0486 % 7.43 C
811 24-11-2017 00:00:00 10.45451 C 92.4028 % 9.28 C
812 25-11-2017 00:00:00 5.3059 C 95.5521 % 4.65 C
813 26-11-2017 00:00:00 3.77986 C 88.7986 % 2.11 C
814 27-11-2017 00:00:00 5.66632 C 87.1875 % 3.71 C
815 28-11-2017 00:00:00 4.26181 C 94.5347 % 3.46 C
816 29-11-2017 00:00:00 3.03576 C 95.4618 % 2.38 C
817 30-11-2017 00:00:00 2.44201 C 95.3958 % 1.78 C
818 01-12-2017 00:00:00 1.13021 C 95.6389 % 0.51 C
819 02-12-2017 00:00:00 0.97604 C 94.2361 % 0.16 C
820 03-12-2017 00:00:00 0.67674 C 93.3958 % -0.26 C
821 04-12-2017 00:00:00 3.2816 C 95.5799 % 2.64 C
822 05-12-2017 00:00:00 4.74826 C 93.4792 % 3.79 C
823 06-12-2017 00:00:00 5.89792 C 90.1493 % 4.41 C
824 07-12-2017 00:00:00 4.77986 C 86.2465 % 2.68 C
825 08-12-2017 00:00:00 3.52014 C 88.7153 % 1.84 C
Sensor: Nr:Datum:Temp:Feuchte:Taupunkt:
Aussen-T/F 826 09-12-2017 00:00:00 1.27569 C 83.4618 % -1.21 C
827 10-12-2017 00:00:00 2.40903 C 88.7049 % 0.74 C
828 11-12-2017 00:00:00 6.02118 C 93.7708 % 5.1 C
829 12-12-2017 00:00:00 3.72292 C 84.9792 % 1.44 C
830 13-12-2017 00:00:00 3.81597 C 89.6875 % 2.28 C
831 14-12-2017 00:00:00 4.58611 C 90.0625 % 3.1 C
832 15-12-2017 00:00:00 2.98611 C 95.5903 % 2.35 C
833 16-12-2017 00:00:00 3.04167 C 95.9618 % 2.46 C
834 17-12-2017 00:00:00 3.05208 C 92.1076 % 1.9 C
835 18-12-2017 00:00:00 1.66944 C 95.4444 % 1.02 C
836 19-12-2017 00:00:00 3.35556 C 97.1146 % 2.94 C
837 20-12-2017 00:00:00 5.65625 C 97.6389 % 5.31 C
838 21-12-2017 00:00:00 7.51667 C 97.5556 % 7.16 C
839 22-12-2017 00:00:00 8.8125 C 97.8889 % 8.5 C
840 23-12-2017 00:00:00 8.76389 C 93.7813 % 7.82 C
841 24-12-2017 00:00:00 8.92292 C 88.6319 % 7.15 C
842 25-12-2017 00:00:00 6.77708 C 85.7292 % 4.56 C
843 26-12-2017 00:00:00 4.68299 C 90.7431 % 3.3 C
844 27-12-2017 00:00:00 5.13993 C 92.8854 % 4.09 C
845 28-12-2017 00:00:00 3.24826 C 88.2396 % 1.49 C
846 29-12-2017 00:00:00 2.41944 C 88.1667 % 0.67 C
847 30-12-2017 00:00:00 7.77187 C 90.7882 % 6.36 C
848 31-12-2017 00:00:00 12.74549 C 82.5729 % 9.86 C
849 01-01-2018 00:00:00 7.71458 C 84.2153 % 5.22 C
850 02-01-2018 00:00:00 6.21076 C 88.1979 % 4.41 C
Sensor: Nr:Datum:Temp:Feuchte:Taupunkt:
Aussen-T/F 851 03-01-2018 00:00:00 8.40313 C 84.5174 % 5.95 C
852 04-01-2018 00:00:00 8.24792 C 89.7014 % 6.66 C
853 05-01-2018 00:00:00 8.32257 C 89.6424 % 6.72 C
854 06-01-2018 00:00:00 6.22188 C 96.7917 % 5.75 C
855 07-01-2018 00:00:00 5.11458 C 92.0417 % 3.93 C
856 08-01-2018 00:00:00 4.61597 C 89.1007 % 2.98 C
857 09-01-2018 00:00:00 5.0191 C 93.0521 % 3.99 C
858 10-01-2018 00:00:00 6.95243 C 92.3472 % 5.8 C
859 11-01-2018 00:00:00 6.99653 C 95.0660 % 6.26 C
860 12-01-2018 00:00:00 6.57708 C 95.7674 % 5.95 C
861 13-01-2018 00:00:00 5.39062 C 89.7813 % 3.85 C
862 14-01-2018 00:00:00 2.95174 C 85.5208 % 0.77 C
863 15-01-2018 00:00:00 3.65833 C 91.1181 % 2.35 C
864 16-01-2018 00:00:00 6.14618 C 85.7569 % 3.94 C
865 17-01-2018 00:00:00 3.45868 C 86.7569 % 1.47 C
866 18-01-2018 00:00:00 5.94167 C 81.9479 % 3.1 C
867 19-01-2018 00:00:00 3.96146 C 86.6771 % 1.95 C
868 20-01-2018 00:00:00 3.05937 C 91.0486 % 1.74 C
869 21-01-2018 00:00:00 2.72951 C 93.5451 % 1.8 C
870 22-01-2018 00:00:00 5.11563 C 93.7708 % 4.2 C
871 23-01-2018 00:00:00 7.37049 C 88.6250 % 5.62 C
872 24-01-2018 00:00:00 11.38021 C 86.3785 % 9.19 C
873 25-01-2018 00:00:00 9.87465 C 92.0243 % 8.64 C
874 26-01-2018 00:00:00 6.62222 C 95.7396 % 5.99 C
875 27-01-2018 00:00:00 4.73299 C 95.1771 % 4.03 C
Sensor: Nr:Datum:Temp:Feuchte:Taupunkt:
Aussen-T/F 876 28-01-2018 00:00:00 7.29028 C 89.6285 % 5.7 C
877 29-01-2018 00:00:00 9.82882 C 85.7674 % 7.56 C
878 30-01-2018 00:00:00 5.41111 C 90.5104 % 3.99 C
879 31-01-2018 00:00:00 7.52153 C 91.0938 % 6.16 C
880 01-02-2018 00:00:00 3.10243 C 90.1632 % 1.65 C
881 02-02-2018 00:00:00 3.41285 C 90.8958 % 2.07 C
882 03-02-2018 00:00:00 3.47118 C 87.7292 % 1.63 C
883 04-02-2018 00:00:00 1.1434 C 87.0208 % -0.77 C
884 05-02-2018 00:00:00 0.32431 C 82.9236 % -2.23 C
885 06-02-2018 00:00:00 -0.78056 C 89.0174 % -2.36 C
886 07-02-2018 00:00:00 -0.06111 C 91.5799 % -1.26 C
887 08-02-2018 00:00:00 -2.18819 C 88.7396 % -3.79 C
888 09-02-2018 00:00:00 -1.96007 C 92.3854 % -3.03 C
889 10-02-2018 00:00:00 2.22257 C 88.0660 % 0.46 C
890 11-02-2018 00:00:00 3.32535 C 86.3333 % 1.27 C
891 12-02-2018 00:00:00 2.1059 C 85.9479 % 0.01 C
892 13-02-2018 00:00:00 -0.32674 C 85.2257 % -2.5 C
893 14-02-2018 00:00:00 -1.52222 C 83.5069 % -3.95 C
894 15-02-2018 00:00:00 1.83299 C 89.2535 % 0.26 C
895 16-02-2018 00:00:00 2.01597 C 96.2500 % 1.48 C
896 17-02-2018 00:00:00 0.40521 C 93.6354 % -0.5 C
897 18-02-2018 00:00:00 -1.01701 C 92.6701 % -2.05 C
898 19-02-2018 00:00:00 1.11667 C 88.7049 % -0.53 C
899 20-02-2018 00:00:00 0.74271 C 87.0313 % -1.16 C
900 21-02-2018 00:00:00 1.21181 C 77.1493 % -2.34 C
Sensor: Nr:Datum:Temp:Feuchte:Taupunkt:
Aussen-T/F 901 22-02-2018 00:00:00 -0.03507 C 74.0938 % -4.09 C
902 23-02-2018 00:00:00 -0.725 C 62.2674 % -7.03 C
903 24-02-2018 00:00:00 -1.57049 C 63.0625 % -7.67 C
904 25-02-2018 00:00:00 -2.70729 C 52.6701 % -11.03 C
905 26-02-2018 00:00:00 -4.18854 C 66.9375 % -9.4 C
906 27-02-2018 00:00:00 -6.00417 C 70.8264 % -10.43 C
907 28-02-2018 00:00:00 -6.7066 C 65.9757 % -11.99 C
908 01-03-2018 00:00:00 -2.91424 C 54.5035 % -10.79 C
909 02-03-2018 00:00:00 -2.40208 C 62.9826 % -8.48 C
910 03-03-2018 00:00:00 -0.40937 C 89.6736 % -1.89 C
911 04-03-2018 00:00:00 4.02986 C 90.9965 % 2.7 C
912 05-03-2018 00:00:00 5.96979 C 85.9965 % 3.81 C
913 06-03-2018 00:00:00 4.90694 C 86.9583 % 2.92 C
914 07-03-2018 00:00:00 5.39792 C 90.0556 % 3.9 C
915 08-03-2018 00:00:00 6.19653 C 83.8368 % 3.67 C
916 09-03-2018 00:00:00 5.56528 C 93.9514 % 4.67 C
917 10-03-2018 00:00:00 10.03125 C 92.4792 % 8.87 C
918 11-03-2018 00:00:00 10.51493 C 91.3854 % 9.17 C
919 12-03-2018 00:00:00 9.7 C 90.2813 % 8.19 C
920 13-03-2018 00:00:00 7.76667 C 88.1215 % 5.93 C
921 14-03-2018 00:00:00 6.86458 C 83.6076 % 4.29 C
922 15-03-2018 00:00:00 6.40382 C 83.6319 % 3.84 C
923 16-03-2018 00:00:00 7.64097 C 94.7813 % 6.86 C
924 17-03-2018 00:00:00 -0.44516 C 83.0573 % -2.96 C
925 18-03-2018 00:00:00 -1.64028 C 75.3299 % -5.42 C
Sensor: Nr:Datum:Temp:Feuchte:Taupunkt:
Aussen-T/F 926 19-03-2018 00:00:00 -0.54479 C 65.7778 % -6.15 C
927 20-03-2018 00:00:00 0.29653 C 73.5035 % -3.87 C
928 21-03-2018 00:00:00 1.2059 C 76.4132 % -2.47 C
929 22-03-2018 00:00:00 3.06319 C 89.6667 % 1.54 C
930 23-03-2018 00:00:00 6.14028 C 89.0799 % 4.48 C
931 24-03-2018 00:00:00 5.20069 C 79.8715 % 2.02 C
932 25-03-2018 00:00:00 5.42862 C 76.5217 % 1.64 C
933 26-03-2018 00:00:00 7.61146 C 73.0313 % 3.1 C
934 27-03-2018 00:00:00 5.82222 C 83.6181 % 3.27 C
935 28-03-2018 00:00:00 8.50799 C 92.0278 % 7.29 C
936 29-03-2018 00:00:00 7.11424 C 75.6701 % 3.12 C
937 30-03-2018 00:00:00 6.82813 C 81.6910 % 3.92 C
938 31-03-2018 00:00:00 8.09792 C 78.7083 % 4.63 C
939 01-04-2018 00:00:00 7.66979 C 81.5451 % 4.72 C
940 02-04-2018 00:00:00 8.78611 C 74.8715 % 4.58 C
941 03-04-2018 00:00:00 13.35 C 67.7257 % 7.51 C
942 04-04-2018 00:00:00 11.17187 C 85.0486 % 8.76 C
943 05-04-2018 00:00:00 8.16042 C 84.2049 % 5.66 C
944 06-04-2018 00:00:00 6.97187 C 72.9167 % 2.46 C
945 07-04-2018 00:00:00 12.50035 C 66.5174 % 6.44 C
946 08-04-2018 00:00:00 14.90417 C 67.3368 % 8.91 C
947 09-04-2018 00:00:00 13.73333 C 72.7188 % 8.93 C
948 10-04-2018 00:00:00 13.3816 C 78.1875 % 9.66 C
949 11-04-2018 00:00:00 11.50035 C 87.5035 % 9.5 C
950 12-04-2018 00:00:00 13.06493 C 80.5000 % 9.79 C
Sensor: Nr:Datum:Temp:Feuchte:Taupunkt:
Aussen-T/F 951 13-04-2018 00:00:00 10.32188 C 88.1458 % 8.45 C
952 14-04-2018 00:00:00 13.08403 C 76.3056 % 9.01 C
953 15-04-2018 00:00:00 14.37465 C 81.8542 % 11.32 C
954 16-04-2018 00:00:00 13.42882 C 78.5417 % 9.78 C
955 17-04-2018 00:00:00 13.72569 C 74.7569 % 9.33 C
956 18-04-2018 00:00:00 15.73264 C 69.7882 % 10.23 C
957 19-04-2018 00:00:00 17.21806 C 66.2847 % 10.88 C
958 20-04-2018 00:00:00 17.08681 C 67.8229 % 11.1 C
959 21-04-2018 00:00:00 18.09931 C 71.2639 % 12.82 C
960 22-04-2018 00:00:00 18.53681 C 73.1042 % 13.63 C
961 23-04-2018 00:00:00 18.01181 C 70.6181 % 12.6 C
962 24-04-2018 00:00:00 14.03854 C 72.5938 % 9.2 C
963 25-04-2018 00:00:00 13.47917 C 75.5694 % 9.25 C
964 26-04-2018 00:00:00 11.09167 C 65.0868 % 4.79 C
965 27-04-2018 00:00:00 11.96181 C 67.8333 % 6.21 C
966 28-04-2018 00:00:00 12.62917 C 72.8854 % 7.9 C
967 29-04-2018 00:00:00 14.24792 C 85.8194 % 11.91 C
968 30-04-2018 00:00:00 13.44931 C 77.7604 % 9.65 C
969 01-05-2018 00:00:00 9.59063 C 69.6354 % 4.32 C
970 02-05-2018 00:00:00 9.44549 C 75.6910 % 5.38 C
971 03-05-2018 00:00:00 12.35347 C 68.5729 % 6.74 C
972 04-05-2018 00:00:00 13.14618 C 65.4722 % 6.83 C
973 05-05-2018 00:00:00 15.50764 C 61.2708 % 8.09 C
974 06-05-2018 00:00:00 17.0059 C 57.6563 % 8.6 C
975 07-05-2018 00:00:00 17.60312 C 61.7674 % 10.19 C
Sensor: Nr:Datum:Temp:Feuchte:Taupunkt:
Aussen-T/F 976 08-05-2018 00:00:00 18.08264 C 62.5556 % 10.83 C
977 09-05-2018 00:00:00 17.125 C 71.3160 % 11.89 C
978 10-05-2018 00:00:00 14.09271 C 87.0729 % 11.98 C
979 11-05-2018 00:00:00 14.47951 C 77.2778 % 10.55 C
980 12-05-2018 00:00:00 16.39236 C 75.1597 % 11.99 C
981 13-05-2018 00:00:00 14.62278 C 93.1317 % 13.53 C
982 14-05-2018 00:00:00 16.77361 C 89.0556 % 14.96 C
983 15-05-2018 00:00:00 15.91597 C 75.1875 % 11.53 C
984 16-05-2018 00:00:00 15.4941 C 83.2118 % 12.66 C
985 17-05-2018 00:00:00 13.78333 C 73.6285 % 9.16 C
986 18-05-2018 00:00:00 12.14792 C 74.4757 % 7.75 C
987 19-05-2018 00:00:00 13.63299 C 73.7118 % 9.03 C
988 20-05-2018 00:00:00 14.00278 C 84.2917 % 11.4 C
989 21-05-2018 00:00:00 17.43819 C 78.1806 % 13.6 C
990 22-05-2018 00:00:00 16.97917 C 82.6944 % 14.02 C
991 23-05-2018 00:00:00 17.30243 C 88.5104 % 15.39 C
992 24-05-2018 00:00:00 17.125 C 87.8507 % 15.1 C
993 25-05-2018 00:00:00 19.81944 C 80.2535 % 16.32 C
994 26-05-2018 00:00:00 20.84826 C 76.3958 % 16.54 C
995 27-05-2018 00:00:00 20.3191 C 81.4236 % 17.03 C
996 28-05-2018 00:00:00 21.47083 C 81.6424 % 18.2 C
997 29-05-2018 00:00:00 20.77292 C 85.9514 % 18.34 C
998 30-05-2018 00:00:00 21.53403 C 77.5799 % 17.45 C
999 31-05-2018 00:00:00 22.62083 C 74.5313 % 17.86 C
1000 01-06-2018 00:00:00 19.10729 C 88.6667 % 17.19 C
Sensor: Nr:Datum:Temp:Feuchte:Taupunkt:
Aussen-T/F 1001 02-06-2018 00:00:00 19.22917 C 81.5243 % 15.99 C
1002 03-06-2018 00:00:00 19.42708 C 77.5903 % 15.41 C
1003 04-06-2018 00:00:00 20.95938 C 74.2257 % 16.2 C
1004 05-06-2018 00:00:00 20.70035 C 77.2569 % 16.58 C
1005 06-06-2018 00:00:00 21.09375 C 74.2222 % 16.33 C
1006 07-06-2018 00:00:00 21.15174 C 80.5868 % 17.68 C
1007 08-06-2018 00:00:00 20.94375 C 84.2361 % 18.18 C
1008 09-06-2018 00:00:00 21.9125 C 83.9896 % 19.08 C
1009 10-06-2018 00:00:00 21.38239 C 86.1831 % 18.98 C
1010 11-06-2018 00:00:00 19.19444 C 93.4549 % 18.11 C
1011 12-06-2018 00:00:00 16.41979 C 90.3194 % 14.83 C
1012 13-06-2018 00:00:00 14.8941 C 79.6285 % 11.41 C
1013 14-06-2018 00:00:00 14.94132 C 80.6806 % 11.65 C
1014 15-06-2018 00:00:00 17.84236 C 88.0243 % 15.83 C
1015 16-06-2018 00:00:00 19.99306 C 78.6493 % 16.17 C
1016 17-06-2018 00:00:00 17.94167 C 75.1979 % 13.49 C
1017 18-06-2018 00:00:00 17.81667 C 77.9757 % 13.93 C
1018 19-06-2018 00:00:00 18.89201 C 84.5799 % 16.24 C
1019 20-06-2018 00:00:00 23.07639 C 72.0069 % 17.75 C
1020 21-06-2018 00:00:00 17.92639 C 69.4514 % 12.26 C
1021 22-06-2018 00:00:00 13.74097 C 68.4549 % 8.04 C
1022 23-06-2018 00:00:00 13.76424 C 76.4514 % 9.7 C
1023 24-06-2018 00:00:00 15.88264 C 72.8299 % 11.02 C
1024 25-06-2018 00:00:00 17.09201 C 78.1806 % 13.26 C
1025 26-06-2018 00:00:00 17.67396 C 74.6806 % 13.13 C
Sensor: Nr:Datum:Temp:Feuchte:Taupunkt:
Aussen-T/F 1026 27-06-2018 00:00:00 19.15694 C 67.6979 % 13.05 C
1027 28-06-2018 00:00:00 20.71076 C 61.1806 % 12.97 C
1028 29-06-2018 00:00:00 24.11424 C 56.0451 % 14.8 C
1029 30-06-2018 00:00:00 22.06215 C 56.9201 % 13.13 C
1030 01-07-2018 00:00:00 20.86597 C 42.7396 % 7.74 C
1031 02-07-2018 00:00:00 20.44792 C 45.9861 % 8.44 C
1032 03-07-2018 00:00:00 20.73299 C 50.1319 % 9.98 C
1033 04-07-2018 00:00:00 18.84167 C 80.7778 % 15.47 C
1034 05-07-2018 00:00:00 19.41111 C 88.5799 % 17.48 C
1035 06-07-2018 00:00:00 20.03056 C 75.7014 % 15.61 C
1036 07-07-2018 00:00:00 20.66701 C 67.2326 % 14.38 C
1037 08-07-2018 00:00:00 19.71181 C 58.3160 % 11.3 C
1038 09-07-2018 00:00:00 19.32361 C 67.3299 % 13.12 C
1039 10-07-2018 00:00:00 17.13715 C 73.0729 % 12.28 C
1040 11-07-2018 00:00:00 16.10729 C 82.2396 % 13.08 C
1041 12-07-2018 00:00:00 19.59688 C 80.3924 % 16.13 C
1042 13-07-2018 00:00:00 19.71166 C 77.4240 % 15.65 C
1043 14-07-2018 00:00:00 21.51493 C 67.9236 % 15.34 C
1044 15-07-2018 00:00:00 21.63021 C 64.0521 % 14.54 C
1045 16-07-2018 00:00:00 22.30868 C 61.5347 % 14.56 C
1046 17-07-2018 00:00:00 21.01771 C 65.8507 % 14.39 C
1047 18-07-2018 00:00:00 20.29479 C 65.8750 % 13.71 C
1048 19-07-2018 00:00:00 20.92431 C 60.5069 % 13 C
1049 20-07-2018 00:00:00 21.5559 C 61.6319 % 13.88 C
1050 21-07-2018 00:00:00 20.6125 C 77.3958 % 16.52 C
Sensor: Nr:Datum:Temp:Feuchte:Taupunkt:
Aussen-T/F 1051 22-07-2018 00:00:00 21.61458 C 70.0486 % 15.92 C
1052 23-07-2018 00:00:00 22.37917 C 67.0868 % 15.97 C
1053 24-07-2018 00:00:00 23.70278 C 63.7465 % 16.43 C
1054 25-07-2018 00:00:00 25.50069 C 57.3160 % 16.44 C
1055 26-07-2018 00:00:00 27.18785 C 54.2326 % 17.14 C
1056 27-07-2018 00:00:00 26.11146 C 50.4861 % 15.03 C
1057 28-07-2018 00:00:00 21.97743 C 76.3924 % 17.63 C
1058 29-07-2018 00:00:00 23.50521 C 66.0451 % 16.8 C
1059 30-07-2018 00:00:00 24.29931 C 64.4410 % 17.16 C
1060 31-07-2018 00:00:00 25.46875 C 61.9722 % 17.65 C
1061 01-08-2018 00:00:00 20.74271 C 87.4931 % 18.59 C
1062 02-08-2018 00:00:00 23.73056 C 74.2257 % 18.87 C
1063 03-08-2018 00:00:00 26.4684 C 61.0278 % 18.34 C
1064 04-08-2018 00:00:00 26.38714 C 57.9821 % 17.45 C
1065 05-08-2018 00:00:00 24.70486 C 59.6424 % 16.32 C
1066 06-08-2018 00:00:00 24.16944 C 57.6563 % 15.29 C
1067 07-08-2018 00:00:00 26.73646 C 55.5104 % 17.09 C
1068 08-08-2018 00:00:00 25.29618 C 61.3021 % 17.31 C
1069 09-08-2018 00:00:00 20.57778 C 82.7639 % 17.54 C
1070 10-08-2018 00:00:00 18.35486 C 65.3924 % 11.76 C
1071 11-08-2018 00:00:00 18.37083 C 59.8611 % 10.44 C
1072 12-08-2018 00:00:00 18.15451 C 63.0729 % 11.02 C
1073 13-08-2018 00:00:00 17.68854 C 81.8924 % 14.56 C
1074 14-08-2018 00:00:00 18.53958 C 84.6563 % 15.91 C
1075 15-08-2018 00:00:00 19.375 C 79.2465 % 15.69 C
Sensor: Nr:Datum:Temp:Feuchte:Taupunkt:
Aussen-T/F 1076 16-08-2018 00:00:00 20.74444 C 71.2743 % 15.36 C
1077 17-08-2018 00:00:00 19.75903 C 76.6632 % 15.54 C
1078 18-08-2018 00:00:00 18.88785 C 68.7326 % 13.02 C
1079 19-08-2018 00:00:00 20.30521 C 67.4132 % 14.07 C
1080 20-08-2018 00:00:00 20.84444 C 73.5938 % 15.95 C
1081 21-08-2018 00:00:00 21.96979 C 70.6528 % 16.39 C
1082 22-08-2018 00:00:00 23.24757 C 65.7500 % 16.48 C
1083 23-08-2018 00:00:00 22.88681 C 69.0660 % 16.91 C
1084 24-08-2018 00:00:00 19.03368 C 65.5556 % 12.44 C
1085 25-08-2018 00:00:00 14.525 C 69.8438 % 9.09 C
1086 26-08-2018 00:00:00 13.80556 C 67.7882 % 7.96 C
1087 27-08-2018 00:00:00 18.12604 C 70.1493 % 12.6 C
1088 28-08-2018 00:00:00 18.12917 C 67.6632 % 12.06 C
1089 29-08-2018 00:00:00 17.15556 C 80.1528 % 13.71 C
1090 30-08-2018 00:00:00 17.22778 C 75.0799 % 12.78 C
1091 31-08-2018 00:00:00 15.05521 C 72.2951 % 10.11 C
1092 01-09-2018 00:00:00 14.30833 C 69.0799 % 8.72 C
1093 02-09-2018 00:00:00 14.27188 C 76.5347 % 10.21 C
1094 03-09-2018 00:00:00 18.05417 C 80.5556 % 14.66 C
1095 04-09-2018 00:00:00 20.01736 C 79.3507 % 16.33 C
1096 05-09-2018 00:00:00 20.91701 C 73.3229 % 15.97 C

Maximal/Minimal-Werte vom 06.09.2015 - 05.09.2018

Sensor Min Max Avg
Temp
(Aussen-T/F)
-10.6 °C
22-01-2017  07:55:00
38.4 °C
07-08-2018  18:10:00
11.18 °C
Feuchte
(Aussen-T/F)
18 %
03-07-2018  17:25:00
99 %
29-12-2015  15:05:00
83.57 %
Taupunkt
(Aussen-T/F)
-11.99 C
28-02-2018  00:00:00
20.49 C
24-06-2016  00:00:00
8.35 C

Die Daten stammen von einer Davis Vantage Pro 2 Wetter-Station und werden unter Linux mit der Software wview2wettercgi und aufbereitet. Alle Angaben erfolgen ohne Gewähr für ihre Vollständigkeit oder Richtigkeit.
Kontakt: Rainer Krienke krienke@uni-koblenz.de . Meine Webseiten an der Uni Koblenz oder privat.
Version: $Revision: 0.78 $